Time;durP1;ratioP1;P1;durP2;ratioP2;P2;SDS_P1;SDS_P2;PMS_P1;PMS_P2;Temp;Humidity;BMP_temperature;BMP_pressure;BME280_temperature;BME280_humidity;BME280_pressure;Samples;Min_cycle;Max_cycle;Signal;HPM_P1;HPM_P2
2022/09/07 00:00:41;;;;;;;13.23;6.70;;;19.70;99.90;;;;;;5062200;28;20105;-71
2022/09/07 00:03:07;;;;;;;13.25;9.40;;;19.70;99.90;;;;;;5060974;28;20059;-71
2022/09/07 00:05:39;;;;;;;10.30;6.65;;;19.70;99.90;;;;;;5062284;28;20743;-70
2022/09/07 00:08:05;;;;;;;9.93;7.18;;;19.70;99.90;;;;;;5061578;28;20753;-71
2022/09/07 00:10:30;;;;;;;9.48;6.25;;;19.60;99.90;;;;;;5063173;28;20048;-70
2022/09/07 00:12:56;;;;;;;9.60;7.00;;;19.60;99.90;;;;;;5062245;28;20589;-71
2022/09/07 00:15:22;;;;;;;13.02;7.18;;;19.60;99.90;;;;;;5063587;28;20516;-70
2022/09/07 00:17:48;;;;;;;12.57;7.35;;;19.50;99.90;;;;;;5054978;28;20463;-71
2022/09/07 00:20:14;;;;;;;12.55;8.05;;;19.40;99.90;;;;;;5046886;28;20052;-70
2022/09/07 00:22:40;;;;;;;11.73;8.82;;;19.40;99.90;;;;;;5062793;28;20048;-71
2022/09/07 00:25:06;;;;;;;11.75;8.13;;;19.40;99.90;;;;;;5062585;28;20119;-70
2022/09/07 00:27:31;;;;;;;11.50;8.10;;;19.30;99.90;;;;;;5062627;28;20556;-70
2022/09/07 00:29:57;;;;;;;15.23;9.52;;;19.30;99.90;;;;;;5063734;28;20037;-71
2022/09/07 00:32:23;;;;;;;13.55;9.02;;;19.30;99.90;;;;;;5064084;28;20036;-70
2022/09/07 00:34:50;;;;;;;12.15;8.43;;;19.30;99.90;;;;;;5060014;28;20044;-70
2022/09/07 00:37:15;;;;;;;14.63;9.27;;;19.30;99.90;;;;;;5062206;28;20056;-70
2022/09/07 00:39:41;;;;;;;11.32;8.20;;;19.20;99.90;;;;;;5062130;28;20087;-70
2022/09/07 00:42:07;;;;;;;11.68;8.68;;;19.20;99.90;;;;;;5063535;28;20039;-70
2022/09/07 00:44:41;;;;;;;14.82;9.43;;;19.20;99.90;;;;;;5064781;28;20151;-70
2022/09/07 00:47:17;;;;;;;11.27;8.57;;;19.10;99.90;;;;;;5065046;28;20448;-70
2022/09/07 00:49:47;;;;;;;12.60;9.18;;;19.10;99.90;;;;;;5064310;28;20098;-70
2022/09/07 00:52:15;;;;;;;13.02;8.63;;;19.10;99.90;;;;;;5060991;28;20107;-70
2022/09/07 00:54:46;;;;;;;15.55;9.10;;;19.10;99.90;;;;;;5061434;28;20519;-70
2022/09/07 00:57:13;;;;;;;12.25;8.48;;;19.10;99.90;;;;;;5070168;28;20540;-69
2022/09/07 00:59:42;;;;;;;19.90;9.50;;;19.00;99.90;;;;;;5062206;28;20127;-69
2022/09/07 01:02:08;;;;;;;12.98;9.68;;;19.10;99.90;;;;;;5065284;28;20032;-69
2022/09/07 01:04:34;;;;;;;12.00;8.82;;;19.00;99.90;;;;;;5062814;28;20040;-69
2022/09/07 01:07:02;;;;;;;12.88;9.40;;;19.00;99.90;;;;;;5046033;28;20040;-69
2022/09/07 01:09:29;;;;;;;13.50;9.88;;;19.00;99.90;;;;;;5063588;28;20516;-69
2022/09/07 01:11:58;;;;;;;13.52;9.57;;;19.00;99.90;;;;;;5062732;28;20047;-70
2022/09/07 01:14:35;;;;;;;13.55;9.65;;;18.90;99.90;;;;;;5061487;28;20068;-69
2022/09/07 01:17:38;;;;;;;15.05;9.68;;;18.90;99.90;;;;;;5062339;28;20050;-69
2022/09/07 01:20:38;;;;;;;13.07;9.52;;;18.90;99.90;;;;;;5060719;28;20047;-69
2022/09/07 01:23:22;;;;;;;14.55;10.48;;;18.80;99.90;;;;;;5063248;28;20076;-69
2022/09/07 01:25:51;;;;;;;14.35;9.48;;;18.80;99.90;;;;;;5071508;28;20505;-70
2022/09/07 01:28:24;;;;;;;15.50;11.75;;;18.80;99.90;;;;;;5049182;28;20110;-69
2022/09/07 01:31:09;;;;;;;15.68;12.10;;;18.80;99.90;;;;;;5050090;28;20074;-70
2022/09/07 01:33:58;;;;;;;16.40;11.90;;;18.70;99.90;;;;;;5065524;28;20119;-70
2022/09/07 01:36:32;;;;;;;20.23;13.23;;;18.60;99.90;;;;;;5047933;28;20130;-71
2022/09/07 01:39:02;;;;;;;21.25;13.50;;;18.40;99.90;;;;;;5053783;28;20412;-70
2022/09/07 01:41:59;;;;;;;22.38;13.85;;;18.30;99.90;;;;;;5064174;28;20040;-70
2022/09/07 01:44:30;;;;;;;19.27;12.68;;;18.20;99.90;;;;;;5061653;28;20717;-71
2022/09/07 01:47:00;;;;;;;18.40;11.15;;;18.10;99.90;;;;;;5064637;28;20097;-71
2022/09/07 01:49:36;;;;;;;18.95;10.63;;;18.10;99.90;;;;;;5064615;28;20401;-71
2022/09/07 01:52:09;;;;;;;17.15;10.02;;;18.10;99.90;;;;;;5065376;28;20496;-71
2022/09/07 01:54:40;;;;;;;13.27;8.55;;;18.10;99.90;;;;;;5063867;28;20618;-72
2022/09/07 01:57:17;;;;;;;9.80;6.63;;;18.10;99.90;;;;;;5078024;28;20072;-72
2022/09/07 01:59:56;;;;;;;10.93;5.95;;;18.10;99.90;;;;;;5066099;28;20457;-72
2022/09/07 02:02:28;;;;;;;11.57;5.85;;;18.10;99.90;;;;;;5046332;28;20198;-72
2022/09/07 02:05:22;;;;;;;9.32;4.63;;;18.20;99.90;;;;;;5064664;28;20082;-72
2022/09/07 02:08:06;;;;;;;10.13;4.78;;;18.20;99.90;;;;;;5062348;28;20131;-72
2022/09/07 02:10:38;;;;;;;8.80;4.25;;;18.20;99.90;;;;;;5061384;28;20048;-72
2022/09/07 02:13:08;;;;;;;8.73;4.88;;;18.20;99.90;;;;;;5062251;28;20209;-73
2022/09/07 02:15:49;;;;;;;9.25;4.63;;;18.10;99.90;;;;;;5072018;28;20083;-72
2022/09/07 02:18:15;;;;;;;;;;;18.00;99.90;;;;;;5064811;28;20079;-72
2022/09/07 02:20:49;;;;;;;10.30;4.45;;;18.00;99.90;;;;;;5064844;28;19956;-72
2022/09/07 02:23:20;;;;;;;8.70;4.68;;;18.00;99.90;;;;;;5046493;28;20087;-72
2022/09/07 02:25:52;;;;;;;;;;;17.90;99.90;;;;;;5063195;28;20048;-73
2022/09/07 02:28:25;;;;;;;11.02;4.25;;;17.90;99.90;;;;;;5065972;28;19964;-72
2022/09/07 02:30:51;;;;;;;7.55;3.88;;;17.90;99.90;;;;;;5061661;28;20120;-72
2022/09/07 02:33:17;;;;;;;8.45;3.90;;;17.90;99.90;;;;;;5064404;28;20155;-72
2022/09/07 02:35:42;;;;;;;9.55;3.55;;;17.80;99.90;;;;;;5047430;28;20076;-72
2022/09/07 02:38:08;;;;;;;8.15;3.92;;;17.80;99.90;;;;;;5062824;28;20575;-72
2022/09/07 02:40:34;;;;;;;9.85;4.55;;;17.70;99.90;;;;;;5061549;28;20835;-72
2022/09/07 02:43:04;;;;;;;7.85;4.20;;;17.70;99.90;;;;;;5063648;28;20036;-73
2022/09/07 02:45:53;;;;;;;7.88;4.07;;;17.70;99.90;;;;;;5071572;28;20052;-72
2022/09/07 02:48:38;;;;;;;7.38;3.80;;;17.70;99.90;;;;;;5060812;28;20511;-72
2022/09/07 02:51:14;;;;;;;8.90;3.70;;;17.70;99.90;;;;;;5063681;28;20040;-72
2022/09/07 02:54:19;;;;;;;7.63;3.40;;;17.70;99.90;;;;;;5047481;28;20105;-73
2022/09/07 02:57:12;;;;;;;6.43;3.50;;;17.80;99.90;;;;;;5036387;28;20048;-73
2022/09/07 02:59:48;;;;;;;7.00;3.10;;;17.80;99.90;;;;;;5063080;28;20068;-74
2022/09/07 03:02:17;;;;;;;9.23;3.42;;;17.90;99.90;;;;;;5045624;28;20052;-73
2022/09/07 03:04:47;;;;;;;8.05;3.40;;;17.90;99.90;;;;;;5062009;28;20076;-73
2022/09/07 03:07:18;;;;;;;10.18;3.85;;;17.90;99.90;;;;;;5065044;28;20044;-74
2022/09/07 03:09:48;;;;;;;7.18;3.60;;;17.90;99.90;;;;;;5063077;28;20053;-73
2022/09/07 03:12:14;;;;;;;7.85;4.15;;;17.90;99.90;;;;;;5045509;28;20056;-73
2022/09/07 03:14:42;;;;;;;7.35;3.70;;;17.90;99.90;;;;;;5063198;28;20412;-73
2022/09/07 03:17:08;;;;;;;8.05;4.22;;;17.90;99.90;;;;;;5064588;28;20055;-73
2022/09/07 03:19:35;;;;;;;6.93;3.58;;;17.90;99.90;;;;;;5061907;28;20436;-73
2022/09/07 03:22:01;;;;;;;7.78;4.20;;;17.90;99.90;;;;;;5064843;28;20102;-74
2022/09/07 03:24:26;;;;;;;11.02;5.03;;;18.00;99.90;;;;;;5062325;28;20048;-73
2022/09/07 03:26:52;;;;;;;9.35;4.40;;;18.00;99.90;;;;;;5063231;28;20047;-73
2022/09/07 03:29:18;;;;;;;9.23;4.60;;;17.90;99.90;;;;;;5062087;28;20048;-74
2022/09/07 03:31:45;;;;;;;9.35;5.28;;;17.90;99.90;;;;;;5044260;28;20051;-73
2022/09/07 03:34:11;;;;;;;7.60;4.22;;;17.90;99.90;;;;;;5063829;28;20615;-73
2022/09/07 03:36:37;;;;;;;8.60;4.65;;;17.90;99.90;;;;;;5066140;28;20037;-73
2022/09/07 03:39:04;;;;;;;7.97;5.10;;;17.90;99.90;;;;;;5061210;28;20048;-73
2022/09/07 03:41:30;;;;;;;7.30;4.55;;;17.80;99.90;;;;;;5063355;28;20119;-73
2022/09/07 03:43:55;;;;;;;9.73;4.70;;;17.80;99.90;;;;;;5063808;28;20140;-73
2022/09/07 03:46:21;;;;;;;10.07;5.50;;;17.80;99.90;;;;;;5062410;28;20048;-74
2022/09/07 03:48:49;;;;;;;10.93;5.63;;;17.80;99.90;;;;;;5052077;28;20037;-74
2022/09/07 03:51:16;;;;;;;10.18;5.13;;;17.80;99.90;;;;;;5059657;28;20580;-74
2022/09/07 03:53:44;;;;;;;11.38;6.00;;;17.80;99.90;;;;;;5061627;28;20059;-73
2022/09/07 03:56:14;;;;;;;8.43;5.75;;;17.80;99.90;;;;;;5061497;28;20520;-73
2022/09/07 03:58:40;;;;;;;8.48;4.97;;;17.70;99.90;;;;;;5065170;28;20563;-74
2022/09/07 04:01:09;;;;;;;9.07;5.82;;;17.70;99.90;;;;;;5062623;28;20044;-73
2022/09/07 04:03:35;;;;;;;7.65;5.30;;;17.70;99.90;;;;;;5046146;28;20750;-74
2022/09/07 04:06:01;;;;;;;8.35;5.10;;;17.70;99.90;;;;;;5060712;28;20052;-74
2022/09/07 04:08:29;;;;;;;8.48;5.93;;;17.70;99.90;;;;;;5063776;28;20041;-75
2022/09/07 04:10:56;;;;;;;8.65;4.95;;;17.70;99.90;;;;;;5044842;28;20059;-74
2022/09/07 04:13:23;;;;;;;9.90;5.50;;;17.70;99.90;;;;;;5045510;28;20169;-74
2022/09/07 04:15:49;;;;;;;7.50;5.10;;;17.60;99.90;;;;;;5046490;28;20052;-74
2022/09/07 04:18:15;;;;;;;7.43;4.95;;;17.60;99.90;;;;;;5060801;28;20052;-73
2022/09/07 04:20:40;;;;;;;8.07;5.03;;;17.60;99.90;;;;;;5062948;28;20041;-73
2022/09/07 04:23:06;;;;;;;8.93;5.10;;;17.60;99.90;;;;;;5062932;28;20067;-73
2022/09/07 04:25:33;;;;;;;10.30;5.22;;;17.60;99.90;;;;;;5060902;28;20524;-73
2022/09/07 04:27:59;;;;;;;8.93;4.80;;;17.60;99.90;;;;;;5060497;28;20181;-74
2022/09/07 04:30:25;;;;;;;8.20;5.32;;;17.60;99.90;;;;;;5063067;28;20119;-74
2022/09/07 04:32:51;;;;;;;10.23;5.80;;;17.60;99.90;;;;;;5048267;28;20135;-73
2022/09/07 04:35:16;;;;;;;10.13;5.35;;;17.60;99.90;;;;;;5060349;28;20037;-73
2022/09/07 04:37:43;;;;;;;10.35;5.82;;;17.50;99.90;;;;;;5063830;28;20048;-73
2022/09/07 04:40:10;;;;;;;7.55;5.40;;;17.50;99.90;;;;;;5062114;28;20102;-73
2022/09/07 04:42:35;;;;;;;8.57;5.40;;;17.50;99.90;;;;;;5062755;28;20447;-74
2022/09/07 04:45:01;;;;;;;9.60;5.90;;;17.40;99.90;;;;;;5062946;28;20044;-73
2022/09/07 04:47:29;;;;;;;7.63;5.28;;;17.40;99.90;;;;;;5056272;28;20097;-73
2022/09/07 04:49:56;;;;;;;8.80;4.95;;;17.40;99.90;;;;;;5062273;28;20037;-73
2022/09/07 04:52:22;;;;;;;9.13;5.60;;;17.40;99.90;;;;;;5063568;28;20037;-74
2022/09/07 04:54:49;;;;;;;10.68;5.32;;;17.40;99.90;;;;;;5064457;28;20044;-73
2022/09/07 04:57:15;;;;;;;7.78;4.50;;;17.30;99.90;;;;;;5059825;28;20037;-74
2022/09/07 04:59:41;;;;;;;10.35;5.40;;;17.30;99.90;;;;;;5048110;28;20040;-73
2022/09/07 05:02:07;;;;;;;9.70;4.90;;;17.30;99.90;;;;;;5057493;28;20043;-73
2022/09/07 05:04:36;;;;;;;9.10;5.47;;;17.30;99.90;;;;;;5065051;28;20037;-73
2022/09/07 05:07:01;;;;;;;9.18;5.40;;;17.30;99.90;;;;;;5051106;28;20036;-74
2022/09/07 05:09:27;;;;;;;8.45;5.30;;;17.30;99.90;;;;;;5059228;28;20052;-73
2022/09/07 05:11:56;;;;;;;10.35;5.30;;;17.30;99.90;;;;;;5058538;28;20040;-73
2022/09/07 05:14:22;;;;;;;10.35;5.65;;;17.30;99.90;;;;;;5036357;28;20045;-74
2022/09/07 05:16:48;;;;;;;7.93;4.88;;;17.20;99.90;;;;;;5043925;28;20052;-73
2022/09/07 05:19:14;;;;;;;8.25;4.95;;;17.20;99.90;;;;;;5070462;28;20127;-74
2022/09/07 05:21:40;;;;;;;10.23;5.70;;;17.30;99.90;;;;;;5059963;28;20052;-74
2022/09/07 05:24:06;;;;;;;10.55;5.70;;;17.30;99.90;;;;;;5055659;28;20045;-74
2022/09/07 05:26:35;;;;;;;8.85;6.07;;;17.30;99.90;;;;;;5058110;28;20036;-73
2022/09/07 05:29:03;;;;;;;10.52;5.68;;;17.30;99.90;;;;;;5080944;28;20039;-73
2022/09/07 05:31:29;;;;;;;10.75;6.50;;;17.20;99.90;;;;;;5058534;28;20889;-74
2022/09/07 05:33:58;;;;;;;11.55;6.30;;;17.30;99.90;;;;;;5055520;28;20043;-73
2022/09/07 05:36:25;;;;;;;8.10;5.60;;;17.30;99.90;;;;;;5059232;28;20045;-74
2022/09/07 05:38:55;;;;;;;12.38;6.70;;;17.30;99.90;;;;;;5054476;28;20052;-74
2022/09/07 05:41:26;;;;;;;9.02;6.03;;;17.30;99.90;;;;;;5060854;28;20461;-74
2022/09/07 05:43:53;;;;;;;11.07;6.53;;;17.30;99.90;;;;;;5059041;28;20041;-73
2022/09/07 05:46:20;;;;;;;13.43;8.00;;;17.30;99.90;;;;;;5053028;28;20045;-74
2022/09/07 05:48:46;;;;;;;13.80;8.55;;;17.30;99.90;;;;;;5059649;28;20489;-74
2022/09/07 05:51:12;;;;;;;15.00;9.15;;;17.30;99.90;;;;;;5063519;28;20044;-73
2022/09/07 05:53:40;;;;;;;12.68;9.23;;;17.30;99.90;;;;;;5053460;28;20106;-74
2022/09/07 05:56:07;;;;;;;13.05;10.10;;;17.30;99.90;;;;;;5059492;28;20113;-73
2022/09/07 05:58:33;;;;;;;15.55;9.65;;;17.20;99.90;;;;;;5060403;28;20032;-74
2022/09/07 06:01:04;;;;;;;12.85;9.75;;;17.30;99.90;;;;;;5060951;28;20044;-73
2022/09/07 06:03:30;;;;;;;15.30;9.85;;;17.30;99.90;;;;;;5059328;28;20054;-73
2022/09/07 06:06:17;;;;;;;15.88;12.85;;;17.30;99.90;;;;;;5064292;28;20082;-73
2022/09/07 06:08:46;;;;;;;14.40;10.00;;;17.30;99.90;;;;;;5061236;28;20079;-73
2022/09/07 06:11:17;;;;;;;12.70;10.43;;;17.30;99.90;;;;;;5048663;28;20097;-73
2022/09/07 06:13:43;;;;;;;15.90;11.02;;;17.30;99.90;;;;;;5061334;28;20098;-73
2022/09/07 06:16:10;;;;;;;14.38;10.98;;;17.30;99.90;;;;;;5042263;28;20087;-73
2022/09/07 06:18:39;;;;;;;15.23;11.40;;;17.30;99.90;;;;;;5066051;28;20090;-72
2022/09/07 06:21:07;;;;;;;14.23;11.15;;;17.30;99.90;;;;;;5068542;28;20045;-73
2022/09/07 06:23:33;;;;;;;14.95;11.48;;;17.30;99.90;;;;;;5060979;28;20040;-73
2022/09/07 06:25:59;;;;;;;17.50;11.88;;;17.30;99.90;;;;;;5057093;28;20526;-73
2022/09/07 06:28:33;;;;;;;15.23;11.38;;;17.40;99.90;;;;;;5060000;28;20052;-73
2022/09/07 06:31:04;;;;;;;16.33;11.73;;;17.40;99.90;;;;;;5045586;28;20040;-73
2022/09/07 06:33:30;;;;;;;17.47;12.87;;;17.40;99.90;;;;;;5060963;28;20053;-73
2022/09/07 06:36:04;;;;;;;17.17;12.95;;;17.40;99.90;;;;;;5062182;28;20425;-73
2022/09/07 06:38:36;;;;;;;18.65;14.80;;;17.40;99.90;;;;;;5060672;28;20048;-73
2022/09/07 06:41:03;;;;;;;17.27;13.05;;;17.40;99.90;;;;;;5046787;28;20182;-73
2022/09/07 06:43:29;;;;;;;19.25;14.25;;;17.40;99.90;;;;;;5064529;28;20044;-74
2022/09/07 06:45:55;;;;;;;15.77;13.38;;;17.40;99.90;;;;;;5064567;28;20043;-73
2022/09/07 06:48:21;;;;;;;14.68;12.70;;;17.40;99.90;;;;;;5061445;28;20047;-73
2022/09/07 06:51:08;;;;;;;15.43;13.30;;;17.40;99.90;;;;;;5063031;28;20033;-74
2022/09/07 06:53:36;;;;;;;20.02;15.82;;;17.40;99.90;;;;;;5064284;28;20052;-73
2022/09/07 06:56:06;;;;;;;19.35;14.40;;;17.40;99.90;;;;;;5062235;28;20040;-73
2022/09/07 06:58:32;;;;;;;17.52;14.88;;;17.50;99.90;;;;;;5059114;28;20033;-73
2022/09/07 07:00:57;;;;;;;20.05;15.32;;;17.50;99.90;;;;;;5064937;28;20145;-73
2022/09/07 07:03:24;;;;;;;19.40;16.33;;;17.50;99.90;;;;;;5059675;28;20045;-73
2022/09/07 07:05:55;;;;;;;22.23;16.75;;;17.50;99.90;;;;;;5061545;28;20040;-73
2022/09/07 07:08:22;;;;;;;19.13;16.08;;;17.50;99.90;;;;;;5064017;28;20060;-73
2022/09/07 07:10:49;;;;;;;22.67;16.52;;;17.50;99.90;;;;;;5063981;28;20105;-73
2022/09/07 07:13:15;;;;;;;20.70;14.90;;;17.50;99.90;;;;;;5060730;28;20090;-73
2022/09/07 07:15:42;;;;;;;22.58;17.85;;;17.50;99.90;;;;;;5064285;28;20075;-73
2022/09/07 07:18:08;;;;;;;26.35;19.08;;;17.50;99.90;;;;;;5057872;28;20059;-73
2022/09/07 07:20:35;;;;;;;19.35;16.85;;;17.50;99.90;;;;;;5061661;28;20048;-73
2022/09/07 07:23:01;;;;;;;24.48;18.13;;;17.50;99.90;;;;;;5059098;28;20047;-73
2022/09/07 07:25:27;;;;;;;22.23;18.02;;;17.50;99.90;;;;;;5058151;28;20048;-73
2022/09/07 07:27:52;;;;;;;22.80;17.92;;;17.50;99.90;;;;;;5061271;28;20039;-73
2022/09/07 07:30:19;;;;;;;23.17;18.67;;;17.50;99.90;;;;;;5039889;28;20440;-73
2022/09/07 07:32:44;;;;;;;25.08;18.42;;;17.50;99.90;;;;;;5064154;28;20037;-73
2022/09/07 07:35:19;;;;;;;23.05;20.27;;;17.50;99.90;;;;;;5058876;28;20037;-73
2022/09/07 07:37:46;;;;;;;23.70;19.92;;;17.50;99.90;;;;;;5073064;28;20040;-73
2022/09/07 07:40:14;;;;;;;26.27;20.30;;;17.50;99.90;;;;;;5056858;28;20436;-73
2022/09/07 07:42:40;;;;;;;24.85;20.48;;;17.50;99.90;;;;;;5059969;28;20052;-73
2022/09/07 07:45:08;;;;;;;23.38;19.30;;;17.50;99.90;;;;;;5058547;28;20150;-73
2022/09/07 07:47:34;;;;;;;24.00;18.88;;;17.50;99.90;;;;;;5059072;28;20152;-72
2022/09/07 07:50:05;;;;;;;24.58;19.40;;;17.50;99.90;;;;;;5068804;28;20080;-73
2022/09/07 07:52:35;;;;;;;25.48;18.75;;;17.50;99.90;;;;;;5063095;28;20045;-72
2022/09/07 07:55:02;;;;;;;22.75;19.55;;;17.50;99.90;;;;;;5063192;28;20371;-73
2022/09/07 07:57:28;;;;;;;22.85;18.38;;;17.60;99.90;;;;;;5062523;28;20028;-73
2022/09/07 07:59:54;;;;;;;30.73;19.95;;;17.60;99.90;;;;;;5060644;28;20039;-73
2022/09/07 08:02:20;;;;;;;28.55;22.20;;;17.60;99.90;;;;;;5063928;28;20048;-73
2022/09/07 08:04:45;;;;;;;24.83;20.13;;;17.60;99.90;;;;;;5043198;28;20041;-73
2022/09/07 08:07:11;;;;;;;25.27;21.90;;;17.70;99.90;;;;;;5062356;28;20098;-73
2022/09/07 08:09:42;;;;;;;28.25;22.65;;;17.70;99.90;;;;;;5058992;28;20178;-72
2022/09/07 08:12:10;;;;;;;26.20;21.10;;;17.70;99.90;;;;;;5057579;28;20052;-72
2022/09/07 08:14:39;;;;;;;25.80;20.23;;;17.70;99.90;;;;;;5069261;28;20056;-73
2022/09/07 08:17:10;;;;;;;29.60;22.40;;;17.80;99.90;;;;;;5061679;28;20154;-72
2022/09/07 08:19:36;;;;;;;28.63;21.20;;;17.80;99.90;;;;;;5060562;28;20228;-72
2022/09/07 08:22:02;;;;;;;31.63;23.77;;;17.80;99.90;;;;;;5060767;28;20131;-72
2022/09/07 08:24:30;;;;;;;29.63;22.20;;;17.90;99.90;;;;;;5054824;28;20441;-73
2022/09/07 08:26:57;;;;;;;29.77;23.23;;;17.90;99.90;;;;;;5058400;28;20072;-72
2022/09/07 08:29:23;;;;;;;32.47;25.90;;;17.90;99.90;;;;;;5058792;28;20033;-72
2022/09/07 08:31:49;;;;;;;30.58;24.13;;;17.90;99.90;;;;;;5061854;28;20127;-72
2022/09/07 08:34:14;;;;;;;28.33;21.67;;;17.90;99.90;;;;;;5066079;28;20037;-72
2022/09/07 08:36:41;;;;;;;28.05;22.75;;;17.90;99.90;;;;;;5058762;28;20044;-72
2022/09/07 08:39:06;;;;;;;29.20;21.83;;;18.00;99.90;;;;;;5063436;28;20036;-72
2022/09/07 08:41:54;;;;;;;34.58;25.80;;;18.00;99.90;;;;;;5060308;28;20068;-72
2022/09/07 08:44:29;;;;;;;27.90;21.45;;;18.00;99.90;;;;;;5044807;28;20056;-72
2022/09/07 08:46:59;;;;;;;30.85;24.35;;;18.10;99.90;;;;;;5058409;28;20045;-72
2022/09/07 08:49:37;;;;;;;29.70;24.27;;;18.20;99.90;;;;;;5056730;28;20059;-69
2022/09/07 08:52:09;;;;;;;27.48;21.90;;;18.20;99.90;;;;;;5060038;28;20049;-72
2022/09/07 08:54:36;;;;;;;28.17;23.60;;;18.30;99.90;;;;;;5057458;28;20084;-69
2022/09/07 08:57:02;;;;;;;32.78;24.13;;;18.30;99.90;;;;;;5059586;28;20056;-69
2022/09/07 08:59:40;;;;;;;31.20;24.17;;;18.30;99.90;;;;;;5059116;28;20041;-69
2022/09/07 09:02:13;;;;;;;27.55;22.63;;;18.40;99.90;;;;;;5060967;28;20052;-69
2022/09/07 09:04:40;;;;;;;26.88;22.25;;;18.40;99.90;;;;;;5060673;28;20053;-70
2022/09/07 09:07:22;;;;;;;29.25;23.30;;;18.40;99.90;;;;;;5060975;28;20044;-69
2022/09/07 09:10:16;;;;;;;25.75;20.33;;;18.50;99.90;;;;;;5056842;28;20700;-69
2022/09/07 09:12:56;;;;;;;27.63;22.38;;;18.50;99.90;;;;;;5060968;28;20040;-69
2022/09/07 09:15:57;;;;;;;28.85;23.25;;;18.50;99.90;;;;;;5052482;28;20418;-69
2022/09/07 09:18:47;;;;;;;27.15;20.92;;;18.60;99.90;;;;;;5051216;28;20049;-70
2022/09/07 09:21:16;;;;;;;28.33;22.65;;;18.70;99.90;;;;;;5058259;28;20043;-69
2022/09/07 09:23:45;;;;;;;24.55;20.63;;;18.70;99.90;;;;;;5057151;28;20083;-69
2022/09/07 09:26:23;;;;;;;27.98;21.05;;;18.80;99.90;;;;;;5055691;28;20041;-70
2022/09/07 09:28:49;;;;;;;24.63;20.05;;;18.90;99.90;;;;;;5059487;28;20247;-70
2022/09/07 09:31:22;;;;;;;24.17;19.30;;;18.90;99.90;;;;;;5058118;28;20124;-69
2022/09/07 09:34:20;;;;;;;20.40;17.02;;;19.00;99.90;;;;;;5060750;28;20043;-69
2022/09/07 09:36:51;;;;;;;19.13;14.63;;;19.00;99.90;;;;;;5026024;28;20048;-69
2022/09/07 09:39:23;;;;;;;16.23;14.02;;;19.20;99.90;;;;;;5070285;28;20044;-70
2022/09/07 09:41:49;;;;;;;18.20;14.90;;;19.30;99.90;;;;;;5063079;28;20048;-70
2022/09/07 09:44:17;;;;;;;14.70;12.27;;;19.40;99.90;;;;;;5061950;28;20048;-70
2022/09/07 09:46:49;;;;;;;14.18;12.10;;;19.40;99.90;;;;;;5060019;28;20069;-70
2022/09/07 09:49:21;;;;;;;16.17;11.55;;;19.50;99.90;;;;;;5061856;28;20425;-70
2022/09/07 09:51:52;;;;;;;13.85;11.40;;;19.60;99.90;;;;;;5062897;28;20668;-70
2022/09/07 09:54:28;;;;;;;12.55;11.25;;;19.80;99.90;;;;;;5061203;28;20040;-70
2022/09/07 09:56:54;;;;;;;13.02;10.30;;;19.90;99.90;;;;;;5061056;28;20498;-69
2022/09/07 09:59:24;;;;;;;14.00;9.45;;;20.10;99.90;;;;;;5045565;28;20043;-70
2022/09/07 10:01:50;;;;;;;11.38;8.70;;;20.30;99.90;;;;;;5061910;28;20060;-70
2022/09/07 10:04:34;;;;;;;12.55;8.55;;;20.40;99.90;;;;;;5061749;28;20030;-70
2022/09/07 10:07:08;;;;;;;10.65;8.57;;;20.50;99.90;;;;;;5059054;28;20467;-70
2022/09/07 10:09:40;;;;;;;10.30;7.93;;;20.50;99.90;;;;;;5062444;28;20140;-70
2022/09/07 10:12:18;;;;;;;9.85;7.45;;;20.50;99.90;;;;;;5060714;28;20048;-70
2022/09/07 10:14:46;;;;;;;10.82;7.85;;;20.60;99.90;;;;;;5065664;28;20063;-70
2022/09/07 10:17:30;;;;;;;8.88;6.55;;;20.70;99.90;;;;;;5066233;28;20041;-71
2022/09/07 10:20:21;;;;;;;10.70;6.82;;;20.80;99.90;;;;;;5064880;28;20080;-70
2022/09/07 10:22:53;;;;;;;10.88;7.40;;;20.70;99.90;;;;;;5061658;28;20596;-70
2022/09/07 10:25:46;;;;;;;10.25;6.13;;;20.80;99.90;;;;;;5066994;28;20322;-70
2022/09/07 10:28:19;;;;;;;14.55;7.35;;;20.80;99.90;;;;;;5048348;28;20862;-70
2022/09/07 10:31:03;;;;;;;8.57;5.97;;;20.80;99.90;;;;;;5064748;28;20044;-70
2022/09/07 10:33:57;;;;;;;8.85;6.38;;;20.90;99.90;;;;;;5060608;28;20080;-70
2022/09/07 10:36:46;;;;;;;9.38;6.40;;;20.90;99.90;;;;;;5064547;28;20123;-70
2022/09/07 10:39:20;;;;;;;8.45;6.05;;;20.90;99.90;;;;;;5049457;28;20052;-70
2022/09/07 10:41:55;;;;;;;8.02;5.88;;;21.00;99.90;;;;;;5060238;28;20055;-70
2022/09/07 10:44:30;;;;;;;11.10;6.15;;;21.10;99.90;;;;;;5053186;28;20554;-71
2022/09/07 10:47:11;;;;;;;8.52;6.03;;;21.10;99.90;;;;;;5059466;28;20032;-70
2022/09/07 10:49:41;;;;;;;9.20;5.95;;;21.20;99.90;;;;;;5042698;28;20044;-70
2022/09/07 10:52:25;;;;;;;7.93;4.80;;;21.30;99.90;;;;;;5057806;28;20078;-70
2022/09/07 10:55:00;;;;;;;5.95;4.20;;;21.30;99.90;;;;;;5052444;28;20052;-71
2022/09/07 10:57:40;;;;;;;7.03;4.57;;;21.40;99.90;;;;;;5051808;28;20098;-71
2022/09/07 11:00:15;;;;;;;7.93;4.57;;;21.40;99.90;;;;;;5058924;28;20043;-70
2022/09/07 11:03:05;;;;;;;7.50;4.28;;;21.50;99.90;;;;;;5053372;28;20040;-71
2022/09/07 11:06:05;;;;;;;7.10;3.75;;;21.50;99.90;;;;;;5051025;28;20086;-70
2022/09/07 11:08:48;;;;;;;5.80;3.20;;;21.50;99.90;;;;;;5049362;28;20063;-70
2022/09/07 11:11:33;;;;;;;7.60;3.25;;;21.60;99.90;;;;;;5059172;28;20052;-70
2022/09/07 11:14:08;;;;;;;5.80;3.15;;;21.60;99.90;;;;;;5049626;28;20512;-69
2022/09/07 11:16:38;;;;;;;6.53;2.83;;;21.70;99.90;;;;;;5049685;28;20060;-72
2022/09/07 11:19:18;;;;;;;4.88;2.38;;;21.80;99.90;;;;;;5033604;28;20079;-70
2022/09/07 11:22:05;;;;;;;6.68;2.30;;;21.90;99.90;;;;;;5049518;28;20154;-70
2022/09/07 11:24:43;;;;;;;5.55;1.92;;;22.00;99.90;;;;;;5047509;28;20056;-71
2022/09/07 11:27:17;;;;;;;4.13;2.08;;;22.00;99.90;;;;;;5033042;28;20109;-70
2022/09/07 11:29:51;;;;;;;5.80;1.75;;;22.00;99.90;;;;;;5049433;28;20509;-70
2022/09/07 11:32:22;;;;;;;3.83;1.70;;;22.00;99.90;;;;;;5047624;28;20155;-70
2022/09/07 11:34:57;;;;;;;4.43;1.95;;;22.10;99.90;;;;;;5059872;28;20274;-70
2022/09/07 11:37:32;;;;;;;4.47;1.63;;;22.20;99.90;;;;;;5060965;28;20052;-70
2022/09/07 11:40:15;;;;;;;3.78;1.50;;;22.20;99.90;;;;;;5037237;28;20120;-70
2022/09/07 11:42:58;;;;;;;3.42;1.40;;;22.20;99.90;;;;;;5056104;28;20044;-71
2022/09/07 11:45:33;;;;;;;3.83;1.30;;;22.10;99.90;;;;;;5076089;28;20044;-70
2022/09/07 11:48:13;;;;;;;4.40;1.50;;;22.20;99.90;;;;;;5061554;28;20522;-70
2022/09/07 11:50:46;;;;;;;4.70;1.27;;;22.20;99.90;;;;;;5061892;28;20050;-71
2022/09/07 11:53:17;;;;;;;3.00;1.33;;;22.30;99.90;;;;;;5060459;28;20045;-70
2022/09/07 11:55:48;;;;;;;3.75;1.40;;;22.30;99.90;;;;;;5059159;28;20131;-71
2022/09/07 11:58:35;;;;;;;5.10;1.35;;;22.20;99.90;;;;;;5060272;28;20307;-70
2022/09/07 12:01:18;;;;;;;4.22;1.67;;;22.30;99.90;;;;;;5070521;28;20079;-71
2022/09/07 12:04:02;;;;;;;4.82;1.65;;;22.20;99.90;;;;;;5060732;28;20048;-70
2022/09/07 12:07:04;;;;;;;3.97;1.50;;;22.10;99.90;;;;;;5055190;28;20049;-70
2022/09/07 12:10:05;;;;;;;2.78;1.20;;;22.10;99.90;;;;;;5038338;28;20052;-70
2022/09/07 12:12:43;;;;;;;2.33;1.20;;;22.10;99.90;;;;;;5032286;28;20085;-70
2022/09/07 12:15:12;;;;;;;3.92;1.30;;;22.10;99.90;;;;;;5060049;28;20461;-70
2022/09/07 12:17:43;;;;;;;3.58;1.67;;;22.10;99.90;;;;;;5056979;28;20063;-71
2022/09/07 12:20:16;;;;;;;5.70;1.80;;;22.20;99.90;;;;;;5049557;28;20098;-70
2022/09/07 12:23:17;;;;;;;3.80;1.63;;;22.30;99.90;;;;;;5058498;28;20085;-70
2022/09/07 12:25:46;;;;;;;6.13;1.70;;;22.40;99.90;;;;;;5069987;28;20055;-70
2022/09/07 12:28:24;;;;;;;4.65;1.40;;;22.40;99.90;;;;;;5056278;28;20087;-71
2022/09/07 12:30:58;;;;;;;5.22;1.60;;;22.40;99.90;;;;;;5055886;28;20049;-70
2022/09/07 12:33:39;;;;;;;3.83;1.65;;;22.40;99.90;;;;;;5057694;28;20506;-70
2022/09/07 12:36:26;;;;;;;4.70;1.50;;;22.50;99.90;;;;;;5052903;28;20440;-70
2022/09/07 12:39:05;;;;;;;6.25;1.70;;;22.60;99.90;;;;;;5058416;28;20056;-71
2022/09/07 12:41:43;;;;;;;4.28;1.70;;;22.70;99.90;;;;;;5058173;28;20040;-71
2022/09/07 12:44:19;;;;;;;6.03;1.38;;;22.90;99.90;;;;;;5054681;28;20056;-71
2022/09/07 12:46:47;;;;;;;4.38;1.50;;;22.90;99.90;;;;;;5060243;28;20056;-71
2022/09/07 12:49:32;;;;;;;3.95;1.30;;;22.80;99.90;;;;;;5056778;28;20087;-71
2022/09/07 12:52:15;;;;;;;5.05;1.35;;;22.80;99.90;;;;;;5061873;28;20058;-71
2022/09/07 12:54:54;;;;;;;7.35;1.80;;;22.80;99.90;;;;;;5058728;28;20044;-70
2022/09/07 12:57:35;;;;;;;5.15;1.90;;;22.90;99.90;;;;;;5059269;28;20130;-70
2022/09/07 13:00:05;;;;;;;4.15;1.55;;;23.00;99.90;;;;;;5057214;28;20113;-70
2022/09/07 13:02:49;;;;;;;3.15;1.45;;;23.10;99.90;;;;;;5041265;28;20041;-70